Philadelphia, PA (19118)

4:05 AM EDT on August 04, 2015 (GMT -0400)
Weather Genius @ Old Wyndmoor | | Change Station
CLOSE
Current Station
Personal Weather Station
Location: Wyndmoor, PA
Elevation: 433 ft
Nearby Weather Stations

Elev 433 ft 40.08 °N, 75.19 °W | Updated 8 minutes ago

Partly Cloudy
Partly Cloudy
70.3 °F
Feels Like 70.3 °F
N
0.0
Wind Variable Wind from ESE
Gusts 0.0 mph

Today
High -- | Low -- °F
--% Chance of Precip.
Yesterday
High -- | Low -- °F
Precip. -- in
6:01 AM 8:11 PM
Waning Gibbous, 80% visible
Pressure 29.86 in
Visibility 10.0 miles
Clouds Clear
Dew Point 65 °F
Humidity 84%
Rainfall 0.00 in
Snow Depth Not available.
UV 0 out of 12
Pollen 8.30 out of 12
Air Quality Not available.
Flu Activity Not available.
METAR KLOM 040755Z AUTO 00000KT 10SM CLR 20/19 A2986 RMK AO1

More Conditions Fewer Conditions

Pressure 29.86 in
Visibility 10.0 miles
Clouds Clear
Dew Point 65 °F
Humidity 84%
Rainfall 0.00 in
Snow Depth Not available.
UV 0 out of 12
Pollen 8.30 out of 12
Air Quality Not available.
Flu Activity Not available.
METAR KLOM 040755Z AUTO 00000KT 10SM CLR 20/19 A2986 RMK AO1

More Conditions Fewer Conditions

10-Day Weather Forecast

×

Almanac

Astronomy

Aug. 04, 2015 Rise Set
Actual Time
Civil Twilight
Nautical Twilight
Astronomical Twilight
Moon
Length of Visible Light
Length of Day
Tomorrow will be .
, % of the Moon is Illuminated

Today's Extremes

State Highs State Lows

Community

WunderPhotos

Upload Photos

1,843,877 photos uploaded!

WunderBlogs® & News

Nearby

Air Quality

  Air Quality AQ Index Pollutant
Not available.

Snow Depth

Station Depth Elevation

Earthquake Activity

City Distance Mag. Time & Date
Minimum magnitude displayed is 2.5.

Coastal Water Temperatures

Place Temperature

Stations

Nearby Weather Stations

Station Location Temp. Windchill Dew Point Humidity Wind Precip. Elev Updated Type